createdAt,value
2022-12-03T00:00:40.009Z,12.93
2022-12-03T00:03:07.912Z,15.17
2022-12-03T00:05:35.816Z,14.67
2022-12-03T00:08:03.942Z,13.80
2022-12-03T00:10:33.429Z,13.60
2022-12-03T00:13:01.252Z,13.30
2022-12-03T00:15:29.085Z,13.90
2022-12-03T00:17:56.979Z,14.23
2022-12-03T00:20:25.899Z,13.97
2022-12-03T00:22:53.674Z,14.27
2022-12-03T00:25:21.511Z,14.53
2022-12-03T00:27:50.878Z,14.40
2022-12-03T00:30:18.801Z,13.80
2022-12-03T00:32:46.611Z,14.00
2022-12-03T00:35:14.429Z,14.07
2022-12-03T00:37:42.232Z,14.30
2022-12-03T00:40:11.713Z,15.53
2022-12-03T00:42:39.633Z,13.50
2022-12-03T00:45:09.562Z,13.93
2022-12-03T00:47:37.370Z,13.80
2022-12-03T00:50:05.469Z,14.77
2022-12-03T00:52:33.333Z,14.60
2022-12-03T00:55:01.163Z,14.43
2022-12-03T00:57:28.997Z,14.70
2022-12-03T00:59:56.788Z,13.33
2022-12-03T01:02:26.035Z,14.83
2022-12-03T01:04:54.173Z,13.17
2022-12-03T01:07:22.207Z,13.67
2022-12-03T01:09:50.086Z,14.00
2022-12-03T01:12:17.880Z,14.23
2022-12-03T01:14:45.913Z,14.17
2022-12-03T01:17:14.126Z,14.30
2022-12-03T01:19:48.266Z,13.90
2022-12-03T01:22:16.461Z,14.03
2022-12-03T01:24:44.260Z,13.80
2022-12-03T01:27:12.054Z,13.60
2022-12-03T01:29:40.010Z,14.50
2022-12-03T01:32:19.422Z,13.67
2022-12-03T01:34:50.473Z,13.13
2022-12-03T01:37:21.558Z,13.50
2022-12-03T01:39:49.466Z,12.67
2022-12-03T01:42:19.383Z,12.63
2022-12-03T01:44:47.696Z,12.80
2022-12-03T01:47:18.298Z,12.83
2022-12-03T01:49:50.464Z,12.40
2022-12-03T01:52:20.900Z,13.13
2022-12-03T01:54:52.820Z,12.07
2022-12-03T01:57:25.359Z,12.13
2022-12-03T01:59:53.735Z,12.17
2022-12-03T02:02:24.157Z,12.43
2022-12-03T02:04:54.830Z,12.70
2022-12-03T02:07:26.488Z,12.13
2022-12-03T02:09:56.025Z,12.30
2022-12-03T02:12:32.848Z,11.97
2022-12-03T02:15:01.152Z,11.67
2022-12-03T02:17:29.314Z,11.60
2022-12-03T02:19:59.371Z,11.53
2022-12-03T02:22:37.270Z,11.60
2022-12-03T02:25:16.324Z,11.30
2022-12-03T02:27:44.540Z,11.03
2022-12-03T02:30:14.479Z,10.93
2022-12-03T02:32:42.346Z,10.23
2022-12-03T02:35:15.584Z,11.00
2022-12-03T02:37:44.838Z,10.23
2022-12-03T02:40:19.623Z,11.23
2022-12-03T02:42:47.589Z,9.60
2022-12-03T02:45:19.224Z,10.97
2022-12-03T02:47:50.314Z,10.63
2022-12-03T02:50:21.397Z,10.43
2022-12-03T02:52:49.843Z,10.73
2022-12-03T02:55:19.725Z,10.17
2022-12-03T02:57:50.638Z,9.20
2022-12-03T03:00:19.686Z,9.30
2022-12-03T03:02:48.247Z,10.30
2022-12-03T03:05:16.941Z,9.43
2022-12-03T03:07:45.298Z,9.77
2022-12-03T03:10:17.758Z,9.43
2022-12-03T03:12:47.381Z,9.03
2022-12-03T03:15:15.352Z,9.27
2022-12-03T03:17:44.043Z,8.90
2022-12-03T03:20:12.822Z,9.27
2022-12-03T03:22:42.436Z,8.53
2022-12-03T03:25:15.217Z,8.23
2022-12-03T03:27:44.206Z,8.63
2022-12-03T03:30:14.978Z,7.70
2022-12-03T03:32:43.702Z,8.43
2022-12-03T03:35:13.944Z,7.97
2022-12-03T03:37:42.306Z,8.80
2022-12-03T03:40:10.775Z,8.63
2022-12-03T03:42:39.607Z,8.00
2022-12-03T03:45:10.361Z,8.23
2022-12-03T03:47:40.054Z,7.80
2022-12-03T03:50:11.322Z,7.93
2022-12-03T03:52:40.670Z,7.50
2022-12-03T03:55:11.248Z,7.57
2022-12-03T03:57:39.840Z,7.83
2022-12-03T04:00:09.213Z,7.20
2022-12-03T04:02:39.070Z,7.33
2022-12-03T04:05:07.749Z,6.93
2022-12-03T04:07:35.815Z,7.73
2022-12-03T04:10:24.563Z,7.20
2022-12-03T04:12:57.484Z,7.23
2022-12-03T04:15:26.493Z,6.10
2022-12-03T04:18:14.048Z,7.17
2022-12-03T04:20:42.035Z,6.77
2022-12-03T04:23:09.580Z,6.93
2022-12-03T04:25:54.970Z,6.77
2022-12-03T04:28:40.493Z,5.97
2022-12-03T04:31:22.634Z,6.77
2022-12-03T04:34:09.540Z,6.13
2022-12-03T04:36:37.365Z,5.97
2022-12-03T04:39:05.471Z,6.13
2022-12-03T04:41:33.289Z,5.83
2022-12-03T04:44:17.668Z,5.63
2022-12-03T04:46:45.461Z,6.00
2022-12-03T04:49:14.648Z,6.17
2022-12-03T04:51:42.548Z,5.80
2022-12-03T04:54:10.399Z,6.10
2022-12-03T04:56:38.194Z,5.80
2022-12-03T04:59:08.074Z,5.90
2022-12-03T05:01:39.286Z,5.50
2022-12-03T05:04:07.322Z,5.20
2022-12-03T05:06:36.538Z,5.17
2022-12-03T05:09:05.006Z,5.13
2022-12-03T05:11:33.058Z,5.47
2022-12-03T05:14:00.899Z,5.23
2022-12-03T05:16:28.759Z,5.10
2022-12-03T05:18:56.706Z,4.90
2022-12-03T05:21:23.734Z,5.03
2022-12-03T05:23:52.915Z,4.90
2022-12-03T05:26:20.934Z,4.80
2022-12-03T05:28:48.793Z,5.33
2022-12-03T05:31:17.239Z,4.80
2022-12-03T05:33:45.149Z,5.00
2022-12-03T05:36:13.442Z,4.90
2022-12-03T05:38:41.253Z,4.60
2022-12-03T05:41:24.346Z,4.70
2022-12-03T05:43:52.230Z,4.33
2022-12-03T05:46:20.147Z,4.30
2022-12-03T05:48:48.043Z,4.50
2022-12-03T05:51:15.874Z,4.40
2022-12-03T05:53:43.686Z,4.20
2022-12-03T05:56:12.876Z,4.50
2022-12-03T05:58:40.663Z,3.93
2022-12-03T06:01:08.517Z,4.33
2022-12-03T06:03:36.372Z,4.50
2022-12-03T06:06:04.376Z,4.33
2022-12-03T06:08:32.241Z,4.13
2022-12-03T06:11:00.093Z,4.23
2022-12-03T06:13:29.285Z,4.07
2022-12-03T06:15:57.134Z,3.90
2022-12-03T06:18:24.967Z,4.00
2022-12-03T06:20:52.789Z,4.20
2022-12-03T06:23:20.837Z,3.83
2022-12-03T06:25:48.653Z,4.00
2022-12-03T06:28:16.446Z,3.60
2022-12-03T06:30:45.668Z,3.97
2022-12-03T06:33:13.468Z,3.50
2022-12-03T06:35:41.258Z,3.60
2022-12-03T06:38:09.056Z,3.43
2022-12-03T06:40:38.152Z,3.70
2022-12-03T06:43:05.940Z,4.00
2022-12-03T06:45:33.750Z,3.63
2022-12-03T06:48:02.911Z,3.47
2022-12-03T06:50:30.730Z,3.37
2022-12-03T06:52:58.749Z,3.30
2022-12-03T06:55:26.532Z,3.60
2022-12-03T06:57:54.338Z,3.33
2022-12-03T07:00:22.817Z,3.10
2022-12-03T07:02:50.724Z,3.10
2022-12-03T07:05:20.503Z,4.00
2022-12-03T07:07:51.789Z,3.47
2022-12-03T07:10:20.291Z,3.40
2022-12-03T07:12:48.230Z,3.33
2022-12-03T07:15:16.216Z,3.37
2022-12-03T07:17:44.161Z,3.83
2022-12-03T07:20:12.564Z,3.57
2022-12-03T07:22:41.725Z,3.43
2022-12-03T07:25:10.383Z,3.40
2022-12-03T07:27:38.224Z,3.20
2022-12-03T07:30:07.396Z,3.20
2022-12-03T07:32:35.237Z,3.40
2022-12-03T07:35:03.077Z,3.13
2022-12-03T07:37:30.921Z,3.70
2022-12-03T07:40:00.117Z,3.30
2022-12-03T07:42:29.105Z,3.90
2022-12-03T07:44:57.159Z,3.40
2022-12-03T07:47:25.035Z,3.50
2022-12-03T07:49:52.849Z,4.20
2022-12-03T07:52:20.702Z,3.53
2022-12-03T07:54:48.605Z,4.33
2022-12-03T07:57:17.818Z,3.53
2022-12-03T07:59:45.912Z,4.23
2022-12-03T08:02:19.530Z,3.97
2022-12-03T08:04:48.917Z,4.93
2022-12-03T08:07:16.858Z,4.23
2022-12-03T08:09:44.926Z,3.73
2022-12-03T08:12:19.132Z,3.47
2022-12-03T08:14:47.002Z,4.00
2022-12-03T08:17:17.760Z,3.80
2022-12-03T08:19:48.195Z,4.13
2022-12-03T08:22:17.082Z,3.93
2022-12-03T08:24:45.128Z,3.93
2022-12-03T08:27:20.346Z,4.33
2022-12-03T08:29:48.179Z,4.20
2022-12-03T08:32:16.103Z,7.13
2022-12-03T08:34:45.752Z,8.13
2022-12-03T08:37:17.904Z,6.67
2022-12-03T08:39:48.308Z,6.67
2022-12-03T08:42:41.166Z,6.80
2022-12-03T08:45:39.286Z,6.00
2022-12-03T08:48:28.593Z,5.80
2022-12-03T08:50:57.671Z,5.67
2022-12-03T08:53:37.212Z,5.40
2022-12-03T08:56:07.533Z,5.40
2022-12-03T08:58:40.401Z,5.17
2022-12-03T09:01:33.661Z,4.97
2022-12-03T09:04:25.334Z,5.60
2022-12-03T09:06:54.198Z,5.23
2022-12-03T09:09:22.842Z,5.00
2022-12-03T09:11:51.288Z,4.97
2022-12-03T09:14:22.601Z,4.53
2022-12-03T09:16:51.818Z,4.70
2022-12-03T09:19:19.761Z,4.70
2022-12-03T09:21:47.655Z,4.47
2022-12-03T09:24:15.466Z,4.70
2022-12-03T09:26:43.317Z,4.27
2022-12-03T09:29:12.582Z,4.60
2022-12-03T09:31:42.272Z,4.57
2022-12-03T09:34:10.152Z,5.10
2022-12-03T09:36:38.135Z,4.57
2022-12-03T09:39:06.263Z,4.47
2022-12-03T09:41:34.129Z,4.70
2022-12-03T09:44:04.360Z,4.00
2022-12-03T09:46:35.120Z,4.20
2022-12-03T09:49:10.764Z,4.30
2022-12-03T09:51:40.438Z,4.63
2022-12-03T09:54:08.716Z,4.60
2022-12-03T09:56:38.877Z,4.70
2022-12-03T09:59:13.251Z,4.07
2022-12-03T10:01:41.312Z,4.00
2022-12-03T10:04:10.703Z,4.23
2022-12-03T10:06:44.119Z,3.57
2022-12-03T10:09:17.205Z,4.40
2022-12-03T10:11:45.281Z,4.13
2022-12-03T10:14:15.218Z,3.60
2022-12-03T10:16:43.398Z,4.37
2022-12-03T10:19:20.033Z,4.03
2022-12-03T10:21:48.284Z,3.60
2022-12-03T10:24:21.956Z,4.10
2022-12-03T10:26:53.734Z,3.83
2022-12-03T10:29:26.971Z,4.00
2022-12-03T10:31:59.320Z,4.40
2022-12-03T10:34:31.521Z,3.50
2022-12-03T10:37:14.520Z,3.80
2022-12-03T10:39:57.657Z,3.70
2022-12-03T10:42:26.688Z,3.73
2022-12-03T10:45:14.357Z,4.13
2022-12-03T10:47:42.537Z,3.90
2022-12-03T10:50:19.029Z,3.83
2022-12-03T10:52:47.850Z,3.73
2022-12-03T10:55:16.884Z,3.37
2022-12-03T10:57:46.111Z,4.60
2022-12-03T11:00:18.297Z,3.50
2022-12-03T11:02:50.398Z,3.70
2022-12-03T11:05:27.667Z,3.93
2022-12-03T11:07:56.124Z,3.77
2022-12-03T11:10:24.435Z,4.30
2022-12-03T11:13:29.719Z,6.07
2022-12-03T11:15:59.059Z,6.40
2022-12-03T11:19:02.332Z,7.67
2022-12-03T11:21:31.866Z,9.03
2022-12-03T11:24:16.576Z,9.93
2022-12-03T11:27:21.702Z,9.83
2022-12-03T11:30:00.442Z,10.00
2022-12-03T11:33:02.230Z,10.57
2022-12-03T11:35:37.685Z,10.20
2022-12-03T11:38:53.017Z,10.23
2022-12-03T11:41:24.158Z,10.47
2022-12-03T11:44:30.478Z,9.60
2022-12-03T11:47:00.850Z,10.13
2022-12-03T11:49:52.651Z,9.40
2022-12-03T11:52:40.531Z,9.40
2022-12-03T11:55:19.785Z,8.97
2022-12-03T11:57:47.626Z,8.83
2022-12-03T12:00:22.680Z,9.03
2022-12-03T12:02:51.863Z,7.97
2022-12-03T12:05:26.270Z,7.73
2022-12-03T12:07:54.626Z,8.33
2022-12-03T12:10:47.447Z,8.20
2022-12-03T12:13:54.399Z,8.00
2022-12-03T12:16:49.960Z,8.60
2022-12-03T12:19:37.056Z,7.23
2022-12-03T12:22:31.018Z,7.23
2022-12-03T12:25:00.469Z,6.80
2022-12-03T12:27:36.259Z,7.20
2022-12-03T12:30:08.533Z,7.00
2022-12-03T12:32:42.987Z,6.63
2022-12-03T12:35:17.793Z,9.97
2022-12-03T12:37:56.793Z,7.37
2022-12-03T12:40:28.692Z,7.30
2022-12-03T12:43:00.209Z,7.57
2022-12-03T12:45:30.258Z,7.57
2022-12-03T12:48:06.686Z,6.53
2022-12-03T12:50:34.958Z,5.77
2022-12-03T12:53:09.493Z,6.87
2022-12-03T12:55:37.786Z,6.50
2022-12-03T12:58:13.613Z,6.33
2022-12-03T13:00:41.531Z,5.77
2022-12-03T13:03:12.734Z,6.13
2022-12-03T13:05:43.371Z,6.03
2022-12-03T13:08:22.233Z,5.60
2022-12-03T13:10:50.670Z,5.70
2022-12-03T13:13:26.322Z,5.67
2022-12-03T13:16:00.328Z,6.43
2022-12-03T13:18:33.513Z,5.83
2022-12-03T13:21:12.163Z,5.50
2022-12-03T13:23:41.066Z,5.83
2022-12-03T13:26:32.852Z,6.27
2022-12-03T13:29:16.025Z,5.97
2022-12-03T13:31:49.046Z,5.17
2022-12-03T13:34:21.658Z,6.30
2022-12-03T13:36:57.088Z,6.03
2022-12-03T13:39:30.385Z,6.50
2022-12-03T13:42:17.432Z,5.60
2022-12-03T13:44:49.631Z,6.60
2022-12-03T13:47:21.596Z,5.93
2022-12-03T13:49:54.824Z,5.43
2022-12-03T13:52:25.815Z,5.60
2022-12-03T13:54:57.151Z,5.90
2022-12-03T13:57:25.242Z,5.57
2022-12-03T13:59:54.553Z,5.87
2022-12-03T14:02:22.594Z,6.50
2022-12-03T14:04:54.094Z,5.73
2022-12-03T14:07:24.718Z,6.00
2022-12-03T14:09:52.971Z,5.67
2022-12-03T14:12:26.699Z,5.97
2022-12-03T14:14:58.512Z,5.67
2022-12-03T14:17:26.401Z,5.30
2022-12-03T14:19:54.588Z,5.87
2022-12-03T14:22:25.200Z,4.93
2022-12-03T14:24:54.305Z,5.10
2022-12-03T14:27:22.834Z,5.33
2022-12-03T14:29:50.695Z,5.20
2022-12-03T14:32:20.219Z,5.77
2022-12-03T14:34:48.033Z,5.50
2022-12-03T14:37:15.962Z,5.80
2022-12-03T14:39:43.900Z,6.47
2022-12-03T14:42:14.578Z,5.53
2022-12-03T14:44:43.491Z,6.27
2022-12-03T14:47:12.212Z,6.67
2022-12-03T14:49:41.505Z,5.67
2022-12-03T14:52:12.149Z,6.13
2022-12-03T14:54:42.042Z,6.10
2022-12-03T14:57:11.255Z,5.40
2022-12-03T14:59:39.096Z,5.60
2022-12-03T15:02:07.353Z,5.53
2022-12-03T15:04:35.561Z,6.10
2022-12-03T15:07:04.875Z,5.83
2022-12-03T15:09:32.866Z,5.77
2022-12-03T15:12:00.876Z,5.73
2022-12-03T15:14:28.829Z,5.10
2022-12-03T15:16:56.947Z,5.30
2022-12-03T15:19:24.793Z,5.57
2022-12-03T15:21:52.649Z,5.50
2022-12-03T15:24:21.968Z,5.37
2022-12-03T15:26:52.092Z,5.50
2022-12-03T15:29:21.593Z,5.10
2022-12-03T15:31:49.480Z,5.43
2022-12-03T15:34:22.061Z,5.03
2022-12-03T15:36:51.061Z,4.80
2022-12-03T15:39:18.927Z,5.20
2022-12-03T15:41:48.115Z,5.03
2022-12-03T15:44:16.188Z,5.10
2022-12-03T15:46:46.861Z,5.43
2022-12-03T15:49:14.742Z,4.93
2022-12-03T15:51:42.573Z,4.80
2022-12-03T15:54:13.418Z,5.07
2022-12-03T15:56:41.223Z,5.50
2022-12-03T15:59:10.408Z,5.23
2022-12-03T16:01:38.376Z,5.10
2022-12-03T16:04:06.356Z,5.60
2022-12-03T16:06:34.150Z,5.43
2022-12-03T16:09:01.992Z,5.70
2022-12-03T16:11:29.805Z,5.17
2022-12-03T16:13:57.615Z,5.07
2022-12-03T16:16:26.840Z,5.30
2022-12-03T16:18:54.746Z,4.73
2022-12-03T16:21:26.647Z,5.17
2022-12-03T16:23:55.157Z,4.77
2022-12-03T16:26:23.103Z,5.17
2022-12-03T16:28:50.911Z,4.93
2022-12-03T16:31:19.064Z,5.20
2022-12-03T16:33:48.472Z,4.67
2022-12-03T16:36:16.825Z,5.23
2022-12-03T16:38:44.699Z,4.77
2022-12-03T16:41:12.564Z,5.23
2022-12-03T16:43:40.434Z,4.97
2022-12-03T16:46:21.327Z,4.50
2022-12-03T16:48:51.289Z,5.00
2022-12-03T16:51:19.920Z,4.70
2022-12-03T16:53:48.062Z,4.73
2022-12-03T16:56:16.603Z,5.00
2022-12-03T16:58:44.902Z,5.10
2022-12-03T17:01:13.378Z,4.50
2022-12-03T17:03:42.173Z,4.53
2022-12-03T17:06:11.381Z,4.80
2022-12-03T17:08:41.050Z,4.77
2022-12-03T17:11:11.204Z,4.30
2022-12-03T17:13:39.066Z,4.70
2022-12-03T17:16:07.467Z,4.97
2022-12-03T17:18:35.317Z,5.00
2022-12-03T17:21:03.188Z,5.03
2022-12-03T17:23:32.538Z,4.87
2022-12-03T17:26:00.366Z,4.97
2022-12-03T17:28:28.212Z,4.57
2022-12-03T17:30:56.178Z,4.63
2022-12-03T17:33:24.086Z,4.90
2022-12-03T17:35:51.965Z,4.67
2022-12-03T17:38:20.045Z,5.13
2022-12-03T17:40:49.220Z,5.10
2022-12-03T17:43:17.072Z,4.67
2022-12-03T17:45:44.866Z,4.97
2022-12-03T17:48:12.738Z,4.63
2022-12-03T17:50:40.562Z,4.30
2022-12-03T17:53:10.406Z,4.80
2022-12-03T17:55:44.696Z,4.07
2022-12-03T17:58:14.714Z,4.30
2022-12-03T18:00:42.728Z,5.00
2022-12-03T18:03:10.653Z,4.77
2022-12-03T18:05:38.670Z,4.93
2022-12-03T18:08:07.335Z,4.33
2022-12-03T18:10:35.457Z,4.50
2022-12-03T18:13:03.258Z,4.73
2022-12-03T18:15:33.763Z,5.07
2022-12-03T18:18:01.608Z,5.50
2022-12-03T18:20:29.505Z,4.83
2022-12-03T18:22:58.827Z,4.60
2022-12-03T18:25:27.425Z,4.70
2022-12-03T18:27:55.213Z,4.97
2022-12-03T18:30:23.459Z,4.63
2022-12-03T18:32:52.875Z,4.87
2022-12-03T18:35:20.910Z,4.87
2022-12-03T18:37:50.883Z,4.70
2022-12-03T18:40:20.792Z,4.50
2022-12-03T18:42:49.615Z,4.33
2022-12-03T18:45:17.676Z,5.07
2022-12-03T18:47:45.679Z,4.27
2022-12-03T18:50:15.292Z,4.43
2022-12-03T18:52:44.419Z,4.67
2022-12-03T18:55:18.738Z,4.40
2022-12-03T18:57:46.863Z,5.47
2022-12-03T19:00:16.591Z,4.70
2022-12-03T19:05:34.948Z,4.70
2022-12-03T19:08:03.352Z,4.90
2022-12-03T19:10:31.291Z,5.13
2022-12-03T19:12:59.091Z,5.47
2022-12-03T19:15:26.892Z,4.90
2022-12-03T19:17:55.102Z,4.57
2022-12-03T19:20:22.945Z,4.77
2022-12-03T19:22:52.098Z,4.60
2022-12-03T19:25:20.021Z,4.60
2022-12-03T19:27:49.147Z,4.20
2022-12-03T19:30:17.432Z,4.77
2022-12-03T19:32:45.702Z,4.50
2022-12-03T19:35:13.507Z,4.60
2022-12-03T19:37:41.458Z,4.47
2022-12-03T19:40:11.617Z,5.00
2022-12-03T19:42:39.771Z,4.90
2022-12-03T19:45:08.497Z,4.17
2022-12-03T19:47:36.641Z,4.80
2022-12-03T19:50:05.598Z,4.47
2022-12-03T19:52:36.278Z,4.83
2022-12-03T19:55:05.056Z,4.60
2022-12-03T19:57:34.366Z,4.37
2022-12-03T20:00:02.170Z,4.80
2022-12-03T20:02:30.085Z,4.33
2022-12-03T20:04:58.006Z,4.30
2022-12-03T20:07:25.913Z,4.63
2022-12-03T20:09:54.305Z,4.70
2022-12-03T20:12:22.351Z,4.50
2022-12-03T20:14:51.592Z,4.73
2022-12-03T20:17:19.393Z,4.67
2022-12-03T20:19:49.118Z,4.60
2022-12-03T20:22:16.928Z,4.97
2022-12-03T20:24:44.816Z,4.93
2022-12-03T20:27:12.672Z,5.13
2022-12-03T20:29:40.504Z,4.63
2022-12-03T20:32:09.696Z,4.53
2022-12-03T20:34:37.580Z,4.30
2022-12-03T20:37:05.907Z,4.90
2022-12-03T20:39:33.736Z,4.20
2022-12-03T20:42:01.664Z,4.83
2022-12-03T20:44:29.526Z,4.87
2022-12-03T20:46:57.435Z,4.73
2022-12-03T20:49:26.728Z,4.20
2022-12-03T20:51:54.520Z,4.70
2022-12-03T20:54:22.382Z,4.73
2022-12-03T20:56:50.314Z,4.40
2022-12-03T20:59:18.890Z,4.70
2022-12-03T21:01:46.892Z,4.93
2022-12-03T21:04:15.983Z,5.10
2022-12-03T21:06:45.884Z,4.60
2022-12-03T21:09:14.293Z,4.10
2022-12-03T21:11:42.429Z,4.43
2022-12-03T21:14:11.888Z,5.03
2022-12-03T21:19:29.911Z,4.97
2022-12-03T21:21:59.045Z,4.90
2022-12-03T21:24:26.865Z,4.60
2022-12-03T21:26:54.692Z,4.60
2022-12-03T21:29:22.590Z,5.10
2022-12-03T21:31:50.580Z,4.80
2022-12-03T21:34:18.391Z,4.80
2022-12-03T21:36:46.341Z,4.13
2022-12-03T21:39:15.713Z,5.07
2022-12-03T21:42:18.673Z,4.73
2022-12-03T21:44:31.508Z,4.80
2022-12-03T21:47:11.221Z,4.50
2022-12-03T21:49:41.866Z,4.30
2022-12-03T21:52:10.086Z,4.00
2022-12-03T21:54:39.272Z,4.57
2022-12-03T21:57:07.196Z,4.50
2022-12-03T21:59:35.014Z,4.10
2022-12-03T22:02:04.046Z,4.57
2022-12-03T22:04:32.039Z,4.80
2022-12-03T22:06:59.860Z,4.50
2022-12-03T22:09:27.782Z,4.33
2022-12-03T22:11:59.186Z,4.53
2022-12-03T22:14:27.139Z,4.50
2022-12-03T22:16:55.063Z,4.37
2022-12-03T22:19:23.790Z,4.17
2022-12-03T22:21:51.750Z,4.63
2022-12-03T22:24:19.639Z,4.40
2022-12-03T22:26:47.999Z,4.57
2022-12-03T22:29:17.186Z,4.43
2022-12-03T22:31:44.995Z,4.20
2022-12-03T22:34:12.844Z,4.50
2022-12-03T22:36:40.695Z,4.43
2022-12-03T22:39:08.691Z,4.57
2022-12-03T22:41:36.557Z,4.07
2022-12-03T22:44:04.464Z,4.63
2022-12-03T22:46:33.738Z,4.47
2022-12-03T22:49:06.729Z,4.20
2022-12-03T22:51:35.512Z,4.10
2022-12-03T22:54:03.349Z,4.33
2022-12-03T22:56:31.503Z,4.17
2022-12-03T22:58:59.752Z,4.17
2022-12-03T23:01:30.064Z,4.13
2022-12-03T23:03:59.429Z,4.23
2022-12-03T23:06:28.018Z,4.43
2022-12-03T23:08:56.042Z,4.30
2022-12-03T23:11:24.233Z,4.27
2022-12-03T23:13:52.407Z,4.30
2022-12-03T23:16:23.604Z,4.50
2022-12-03T23:18:51.920Z,4.50
2022-12-03T23:21:29.310Z,4.47
2022-12-03T23:23:57.890Z,4.10
2022-12-03T23:26:25.757Z,4.70
2022-12-03T23:28:53.627Z,4.50
2022-12-03T23:31:24.012Z,4.33
2022-12-03T23:33:52.602Z,4.60
2022-12-03T23:36:23.280Z,4.20
2022-12-03T23:38:51.488Z,4.00
2022-12-03T23:41:21.740Z,4.10
2022-12-03T23:43:49.798Z,4.53
2022-12-03T23:46:20.498Z,4.10
2022-12-03T23:48:50.316Z,4.07
2022-12-03T23:51:20.278Z,4.20
2022-12-03T23:53:49.721Z,4.43
2022-12-03T23:56:19.039Z,4.30
2022-12-03T23:58:47.599Z,5.07
